sensor_id;sensor_type;location;lat;lon;timestamp;P1;durP1;ratioP1;P2;durP2;ratioP2
71395;SDS011;59888;55.814;37.132;2023-11-19T00:00:26;37.88;;;16.73;;
71395;SDS011;59888;55.814;37.132;2023-11-19T00:02:52;38.40;;;16.80;;
71395;SDS011;59888;55.814;37.132;2023-11-19T00:05:18;48.50;;;18.95;;
71395;SDS011;59888;55.814;37.132;2023-11-19T00:07:44;41.08;;;16.58;;
71395;SDS011;59888;55.814;37.132;2023-11-19T00:10:11;40.42;;;16.98;;
71395;SDS011;59888;55.814;37.132;2023-11-19T00:12:39;46.05;;;17.30;;
71395;SDS011;59888;55.814;37.132;2023-11-19T00:15:10;43.83;;;17.10;;
71395;SDS011;59888;55.814;37.132;2023-11-19T00:17:41;47.03;;;16.25;;
71395;SDS011;59888;55.814;37.132;2023-11-19T00:20:11;43.20;;;17.83;;
71395;SDS011;59888;55.814;37.132;2023-11-19T00:22:38;37.97;;;16.98;;
71395;SDS011;59888;55.814;37.132;2023-11-19T00:25:05;36.38;;;16.50;;
71395;SDS011;59888;55.814;37.132;2023-11-19T00:27:31;44.80;;;17.45;;
71395;SDS011;59888;55.814;37.132;2023-11-19T00:29:57;44.85;;;17.33;;
71395;SDS011;59888;55.814;37.132;2023-11-19T00:32:25;42.70;;;16.77;;
71395;SDS011;59888;55.814;37.132;2023-11-19T00:34:51;39.22;;;16.10;;
71395;SDS011;59888;55.814;37.132;2023-11-19T00:37:16;37.58;;;17.48;;
71395;SDS011;59888;55.814;37.132;2023-11-19T00:39:43;42.67;;;16.80;;
71395;SDS011;59888;55.814;37.132;2023-11-19T00:42:09;42.97;;;17.63;;
71395;SDS011;59888;55.814;37.132;2023-11-19T00:44:36;40.42;;;17.05;;
71395;SDS011;59888;55.814;37.132;2023-11-19T00:47:03;38.55;;;16.48;;
71395;SDS011;59888;55.814;37.132;2023-11-19T00:49:30;38.25;;;17.02;;
71395;SDS011;59888;55.814;37.132;2023-11-19T00:51:58;40.05;;;17.35;;
71395;SDS011;59888;55.814;37.132;2023-11-19T00:54:24;46.08;;;17.67;;
71395;SDS011;59888;55.814;37.132;2023-11-19T00:56:51;40.13;;;16.55;;
71395;SDS011;59888;55.814;37.132;2023-11-19T00:59:18;41.05;;;17.25;;
71395;SDS011;59888;55.814;37.132;2023-11-19T01:01:45;42.30;;;18.02;;
71395;SDS011;59888;55.814;37.132;2023-11-19T01:04:11;44.55;;;17.65;;
71395;SDS011;59888;55.814;37.132;2023-11-19T01:06:37;46.30;;;17.63;;
71395;SDS011;59888;55.814;37.132;2023-11-19T01:09:03;41.05;;;17.38;;
71395;SDS011;59888;55.814;37.132;2023-11-19T01:11:28;41.17;;;16.90;;
71395;SDS011;59888;55.814;37.132;2023-11-19T01:13:55;44.53;;;17.40;;
71395;SDS011;59888;55.814;37.132;2023-11-19T01:16:22;39.45;;;18.08;;
71395;SDS011;59888;55.814;37.132;2023-11-19T01:18:48;41.92;;;17.17;;
71395;SDS011;59888;55.814;37.132;2023-11-19T01:21:15;36.13;;;16.30;;
71395;SDS011;59888;55.814;37.132;2023-11-19T01:23:42;42.92;;;17.30;;
71395;SDS011;59888;55.814;37.132;2023-11-19T01:26:12;43.25;;;17.17;;
71395;SDS011;59888;55.814;37.132;2023-11-19T01:28:39;44.25;;;17.33;;
71395;SDS011;59888;55.814;37.132;2023-11-19T01:31:06;38.30;;;17.10;;
71395;SDS011;59888;55.814;37.132;2023-11-19T01:33:38;41.60;;;17.65;;
71395;SDS011;59888;55.814;37.132;2023-11-19T01:36:05;51.03;;;18.20;;
71395;SDS011;59888;55.814;37.132;2023-11-19T01:38:32;38.60;;;16.80;;
71395;SDS011;59888;55.814;37.132;2023-11-19T01:40:58;39.80;;;16.35;;
71395;SDS011;59888;55.814;37.132;2023-11-19T01:43:33;43.83;;;17.38;;
71395;SDS011;59888;55.814;37.132;2023-11-19T01:46:01;41.40;;;16.55;;
71395;SDS011;59888;55.814;37.132;2023-11-19T01:48:31;39.60;;;16.67;;
71395;SDS011;59888;55.814;37.132;2023-11-19T01:50:59;42.78;;;17.85;;
71395;SDS011;59888;55.814;37.132;2023-11-19T01:53:27;40.55;;;17.83;;
71395;SDS011;59888;55.814;37.132;2023-11-19T01:55:53;42.95;;;17.33;;
71395;SDS011;59888;55.814;37.132;2023-11-19T01:58:19;35.60;;;16.23;;
71395;SDS011;59888;55.814;37.132;2023-11-19T02:00:45;42.30;;;18.30;;
71395;SDS011;59888;55.814;37.132;2023-11-19T02:03:12;49.22;;;18.15;;
71395;SDS011;59888;55.814;37.132;2023-11-19T02:05:39;44.42;;;17.90;;
71395;SDS011;59888;55.814;37.132;2023-11-19T02:08:05;40.92;;;17.05;;
71395;SDS011;59888;55.814;37.132;2023-11-19T02:10:31;46.85;;;17.67;;
71395;SDS011;59888;55.814;37.132;2023-11-19T02:12:58;49.67;;;17.20;;
71395;SDS011;59888;55.814;37.132;2023-11-19T02:15:24;41.72;;;17.55;;
71395;SDS011;59888;55.814;37.132;2023-11-19T02:17:52;39.85;;;17.88;;
71395;SDS011;59888;55.814;37.132;2023-11-19T02:20:18;44.25;;;17.83;;
71395;SDS011;59888;55.814;37.132;2023-11-19T02:22:49;40.15;;;17.17;;
71395;SDS011;59888;55.814;37.132;2023-11-19T02:25:23;44.65;;;17.17;;
71395;SDS011;59888;55.814;37.132;2023-11-19T02:27:56;42.00;;;18.13;;
71395;SDS011;59888;55.814;37.132;2023-11-19T02:30:25;39.60;;;18.02;;
71395;SDS011;59888;55.814;37.132;2023-11-19T02:35:26;41.45;;;17.58;;
71395;SDS011;59888;55.814;37.132;2023-11-19T02:37:56;40.40;;;17.75;;
71395;SDS011;59888;55.814;37.132;2023-11-19T02:40:23;43.28;;;16.92;;
71395;SDS011;59888;55.814;37.132;2023-11-19T02:42:50;43.17;;;17.60;;
71395;SDS011;59888;55.814;37.132;2023-11-19T02:45:17;42.50;;;17.52;;
71395;SDS011;59888;55.814;37.132;2023-11-19T02:47:43;45.63;;;17.33;;
71395;SDS011;59888;55.814;37.132;2023-11-19T02:50:10;35.95;;;16.30;;
71395;SDS011;59888;55.814;37.132;2023-11-19T02:52:43;40.92;;;17.58;;
71395;SDS011;59888;55.814;37.132;2023-11-19T02:55:12;42.55;;;17.92;;
71395;SDS011;59888;55.814;37.132;2023-11-19T02:57:39;42.38;;;18.55;;
71395;SDS011;59888;55.814;37.132;2023-11-19T03:00:17;40.33;;;16.50;;
71395;SDS011;59888;55.814;37.132;2023-11-19T03:02:44;49.50;;;17.23;;
71395;SDS011;59888;55.814;37.132;2023-11-19T03:05:19;41.42;;;17.38;;
71395;SDS011;59888;55.814;37.132;2023-11-19T03:07:45;41.20;;;16.77;;
71395;SDS011;59888;55.814;37.132;2023-11-19T03:10:12;43.15;;;17.50;;
71395;SDS011;59888;55.814;37.132;2023-11-19T03:12:42;42.03;;;18.13;;
71395;SDS011;59888;55.814;37.132;2023-11-19T03:15:09;37.95;;;16.98;;
71395;SDS011;59888;55.814;37.132;2023-11-19T03:17:36;44.05;;;17.58;;
71395;SDS011;59888;55.814;37.132;2023-11-19T03:20:05;42.00;;;17.40;;
71395;SDS011;59888;55.814;37.132;2023-11-19T03:22:36;44.83;;;17.27;;
71395;SDS011;59888;55.814;37.132;2023-11-19T03:25:04;38.75;;;16.85;;
71395;SDS011;59888;55.814;37.132;2023-11-19T03:27:32;36.03;;;16.08;;
71395;SDS011;59888;55.814;37.132;2023-11-19T03:29:59;40.60;;;16.17;;
71395;SDS011;59888;55.814;37.132;2023-11-19T03:32:25;42.05;;;16.02;;
71395;SDS011;59888;55.814;37.132;2023-11-19T03:34:51;41.67;;;16.65;;
71395;SDS011;59888;55.814;37.132;2023-11-19T03:37:17;44.92;;;17.40;;
71395;SDS011;59888;55.814;37.132;2023-11-19T03:39:43;34.13;;;15.68;;
71395;SDS011;59888;55.814;37.132;2023-11-19T03:42:10;41.05;;;17.17;;
71395;SDS011;59888;55.814;37.132;2023-11-19T03:44:38;43.50;;;16.05;;
71395;SDS011;59888;55.814;37.132;2023-11-19T03:47:05;35.58;;;15.20;;
71395;SDS011;59888;55.814;37.132;2023-11-19T03:49:32;34.75;;;15.98;;
71395;SDS011;59888;55.814;37.132;2023-11-19T03:51:58;35.65;;;15.88;;
71395;SDS011;59888;55.814;37.132;2023-11-19T03:54:25;40.10;;;15.15;;
71395;SDS011;59888;55.814;37.132;2023-11-19T03:56:53;34.53;;;15.32;;
71395;SDS011;59888;55.814;37.132;2023-11-19T03:59:19;35.92;;;14.60;;
71395;SDS011;59888;55.814;37.132;2023-11-19T04:01:46;33.97;;;14.00;;
71395;SDS011;59888;55.814;37.132;2023-11-19T04:04:12;29.08;;;13.18;;
71395;SDS011;59888;55.814;37.132;2023-11-19T04:06:39;35.30;;;14.75;;
71395;SDS011;59888;55.814;37.132;2023-11-19T04:09:05;33.47;;;14.25;;
71395;SDS011;59888;55.814;37.132;2023-11-19T04:11:32;33.42;;;14.30;;
71395;SDS011;59888;55.814;37.132;2023-11-19T04:13:58;36.35;;;13.98;;
71395;SDS011;59888;55.814;37.132;2023-11-19T04:16:27;35.05;;;13.15;;
71395;SDS011;59888;55.814;37.132;2023-11-19T04:18:54;32.55;;;13.93;;
71395;SDS011;59888;55.814;37.132;2023-11-19T04:21:20;35.95;;;14.40;;
71395;SDS011;59888;55.814;37.132;2023-11-19T04:23:48;32.53;;;14.45;;
71395;SDS011;59888;55.814;37.132;2023-11-19T04:26:15;36.65;;;14.65;;
71395;SDS011;59888;55.814;37.132;2023-11-19T04:28:41;40.28;;;14.38;;
71395;SDS011;59888;55.814;37.132;2023-11-19T04:31:07;32.65;;;13.95;;
71395;SDS011;59888;55.814;37.132;2023-11-19T04:33:34;31.02;;;13.45;;
71395;SDS011;59888;55.814;37.132;2023-11-19T04:36:00;33.25;;;12.93;;
71395;SDS011;59888;55.814;37.132;2023-11-19T04:38:28;36.83;;;13.45;;
71395;SDS011;59888;55.814;37.132;2023-11-19T04:40:54;38.25;;;14.55;;
71395;SDS011;59888;55.814;37.132;2023-11-19T04:43:22;34.35;;;13.95;;
71395;SDS011;59888;55.814;37.132;2023-11-19T04:45:48;28.63;;;13.05;;
71395;SDS011;59888;55.814;37.132;2023-11-19T04:48:14;30.88;;;13.30;;
71395;SDS011;59888;55.814;37.132;2023-11-19T04:50:40;31.77;;;13.48;;
71395;SDS011;59888;55.814;37.132;2023-11-19T04:53:06;29.45;;;13.02;;
71395;SDS011;59888;55.814;37.132;2023-11-19T04:55:34;30.05;;;12.88;;
71395;SDS011;59888;55.814;37.132;2023-11-19T04:57:59;29.80;;;12.73;;
71395;SDS011;59888;55.814;37.132;2023-11-19T05:00:25;30.50;;;12.98;;
71395;SDS011;59888;55.814;37.132;2023-11-19T05:02:51;38.22;;;13.73;;
71395;SDS011;59888;55.814;37.132;2023-11-19T05:05:17;32.50;;;12.85;;
71395;SDS011;59888;55.814;37.132;2023-11-19T05:07:44;34.38;;;12.88;;
71395;SDS011;59888;55.814;37.132;2023-11-19T05:10:10;30.70;;;12.13;;
71395;SDS011;59888;55.814;37.132;2023-11-19T05:12:36;26.65;;;11.48;;
71395;SDS011;59888;55.814;37.132;2023-11-19T05:15:01;22.50;;;11.27;;
71395;SDS011;59888;55.814;37.132;2023-11-19T05:17:31;29.48;;;12.65;;
71395;SDS011;59888;55.814;37.132;2023-11-19T05:19:56;26.88;;;12.13;;
71395;SDS011;59888;55.814;37.132;2023-11-19T05:22:23;28.38;;;11.65;;
71395;SDS011;59888;55.814;37.132;2023-11-19T05:24:49;27.27;;;11.25;;
71395;SDS011;59888;55.814;37.132;2023-11-19T05:27:15;27.10;;;11.13;;
71395;SDS011;59888;55.814;37.132;2023-11-19T05:29:43;32.20;;;12.98;;
71395;SDS011;59888;55.814;37.132;2023-11-19T05:32:09;34.53;;;13.45;;
71395;SDS011;59888;55.814;37.132;2023-11-19T05:34:35;31.88;;;12.90;;
71395;SDS011;59888;55.814;37.132;2023-11-19T05:37:01;32.47;;;12.85;;
71395;SDS011;59888;55.814;37.132;2023-11-19T05:39:28;29.58;;;12.82;;
71395;SDS011;59888;55.814;37.132;2023-11-19T05:41:54;30.98;;;12.18;;
71395;SDS011;59888;55.814;37.132;2023-11-19T05:44:20;32.40;;;12.50;;
71395;SDS011;59888;55.814;37.132;2023-11-19T05:46:46;27.00;;;12.60;;
71395;SDS011;59888;55.814;37.132;2023-11-19T05:49:12;25.42;;;11.40;;
71395;SDS011;59888;55.814;37.132;2023-11-19T05:51:39;28.85;;;12.43;;
71395;SDS011;59888;55.814;37.132;2023-11-19T05:54:08;25.38;;;11.38;;
71395;SDS011;59888;55.814;37.132;2023-11-19T05:56:35;24.05;;;11.02;;
71395;SDS011;59888;55.814;37.132;2023-11-19T05:59:01;28.05;;;11.35;;
71395;SDS011;59888;55.814;37.132;2023-11-19T06:01:40;28.88;;;11.98;;
71395;SDS011;59888;55.814;37.132;2023-11-19T06:04:07;28.17;;;11.65;;
71395;SDS011;59888;55.814;37.132;2023-11-19T06:06:33;32.90;;;11.13;;
71395;SDS011;59888;55.814;37.132;2023-11-19T06:08:59;27.77;;;11.23;;
71395;SDS011;59888;55.814;37.132;2023-11-19T06:11:27;26.80;;;10.68;;
71395;SDS011;59888;55.814;37.132;2023-11-19T06:13:54;25.55;;;10.07;;
71395;SDS011;59888;55.814;37.132;2023-11-19T06:16:20;28.35;;;10.95;;
71395;SDS011;59888;55.814;37.132;2023-11-19T06:18:46;29.77;;;11.10;;
71395;SDS011;59888;55.814;37.132;2023-11-19T06:21:12;26.60;;;11.40;;
71395;SDS011;59888;55.814;37.132;2023-11-19T06:23:38;27.52;;;11.02;;
71395;SDS011;59888;55.814;37.132;2023-11-19T06:26:04;25.70;;;10.90;;
71395;SDS011;59888;55.814;37.132;2023-11-19T06:28:31;29.70;;;12.15;;
71395;SDS011;59888;55.814;37.132;2023-11-19T06:30:57;27.02;;;11.73;;
71395;SDS011;59888;55.814;37.132;2023-11-19T06:33:24;28.70;;;11.95;;
71395;SDS011;59888;55.814;37.132;2023-11-19T06:35:50;30.17;;;11.75;;
71395;SDS011;59888;55.814;37.132;2023-11-19T06:38:16;33.50;;;11.77;;
71395;SDS011;59888;55.814;37.132;2023-11-19T06:40:42;30.23;;;11.05;;
71395;SDS011;59888;55.814;37.132;2023-11-19T06:43:08;32.05;;;11.07;;
71395;SDS011;59888;55.814;37.132;2023-11-19T06:45:34;30.38;;;11.68;;
71395;SDS011;59888;55.814;37.132;2023-11-19T06:48:02;33.20;;;14.25;;
71395;SDS011;59888;55.814;37.132;2023-11-19T06:50:47;31.70;;;12.70;;
71395;SDS011;59888;55.814;37.132;2023-11-19T06:53:14;30.35;;;12.98;;
71395;SDS011;59888;55.814;37.132;2023-11-19T06:55:44;26.73;;;12.10;;
71395;SDS011;59888;55.814;37.132;2023-11-19T06:58:10;31.70;;;12.50;;
71395;SDS011;59888;55.814;37.132;2023-11-19T07:00:37;28.70;;;11.95;;
71395;SDS011;59888;55.814;37.132;2023-11-19T07:03:03;42.10;;;13.63;;
71395;SDS011;59888;55.814;37.132;2023-11-19T07:05:31;31.45;;;13.50;;
71395;SDS011;59888;55.814;37.132;2023-11-19T07:07:57;32.10;;;13.23;;
71395;SDS011;59888;55.814;37.132;2023-11-19T07:10:23;33.58;;;13.25;;
71395;SDS011;59888;55.814;37.132;2023-11-19T07:13:16;29.35;;;13.52;;
71395;SDS011;59888;55.814;37.132;2023-11-19T07:15:43;27.65;;;11.85;;
71395;SDS011;59888;55.814;37.132;2023-11-19T07:18:09;31.23;;;11.95;;
71395;SDS011;59888;55.814;37.132;2023-11-19T07:20:38;28.27;;;12.18;;
71395;SDS011;59888;55.814;37.132;2023-11-19T07:26:25;34.63;;;11.93;;
71395;SDS011;59888;55.814;37.132;2023-11-19T07:28:52;30.25;;;13.77;;
71395;SDS011;59888;55.814;37.132;2023-11-19T07:31:18;31.23;;;12.60;;
71395;SDS011;59888;55.814;37.132;2023-11-19T07:33:45;31.10;;;12.45;;
71395;SDS011;59888;55.814;37.132;2023-11-19T07:36:13;31.75;;;12.05;;
71395;SDS011;59888;55.814;37.132;2023-11-19T07:38:39;25.55;;;11.57;;
71395;SDS011;59888;55.814;37.132;2023-11-19T07:41:15;27.13;;;11.98;;
71395;SDS011;59888;55.814;37.132;2023-11-19T07:43:48;26.75;;;11.75;;
71395;SDS011;59888;55.814;37.132;2023-11-19T07:46:15;27.75;;;11.30;;
71395;SDS011;59888;55.814;37.132;2023-11-19T07:48:46;33.88;;;11.85;;
71395;SDS011;59888;55.814;37.132;2023-11-19T07:54:37;27.20;;;12.18;;
71395;SDS011;59888;55.814;37.132;2023-11-19T07:57:04;29.85;;;12.13;;
71395;SDS011;59888;55.814;37.132;2023-11-19T07:59:30;26.75;;;11.55;;
71395;SDS011;59888;55.814;37.132;2023-11-19T08:02:08;24.15;;;10.80;;
71395;SDS011;59888;55.814;37.132;2023-11-19T08:04:55;26.17;;;11.85;;
71395;SDS011;59888;55.814;37.132;2023-11-19T08:07:21;26.70;;;11.23;;
71395;SDS011;59888;55.814;37.132;2023-11-19T08:10:11;25.50;;;11.05;;
71395;SDS011;59888;55.814;37.132;2023-11-19T08:15:30;33.75;;;11.70;;
71395;SDS011;59888;55.814;37.132;2023-11-19T08:17:58;25.13;;;10.93;;
71395;SDS011;59888;55.814;37.132;2023-11-19T08:20:35;28.58;;;12.00;;
71395;SDS011;59888;55.814;37.132;2023-11-19T08:23:04;25.45;;;11.30;;
71395;SDS011;59888;55.814;37.132;2023-11-19T08:25:39;27.40;;;10.93;;
71395;SDS011;59888;55.814;37.132;2023-11-19T08:28:12;26.10;;;12.10;;
71395;SDS011;59888;55.814;37.132;2023-11-19T08:30:40;25.35;;;10.70;;
71395;SDS011;59888;55.814;37.132;2023-11-19T08:33:18;25.30;;;10.93;;
71395;SDS011;59888;55.814;37.132;2023-11-19T08:35:44;23.42;;;10.55;;
71395;SDS011;59888;55.814;37.132;2023-11-19T08:38:13;25.73;;;10.60;;
71395;SDS011;59888;55.814;37.132;2023-11-19T08:40:40;28.65;;;10.85;;
71395;SDS011;59888;55.814;37.132;2023-11-19T08:43:11;28.90;;;11.18;;
71395;SDS011;59888;55.814;37.132;2023-11-19T08:45:37;31.75;;;10.60;;
71395;SDS011;59888;55.814;37.132;2023-11-19T08:48:04;28.98;;;11.18;;
71395;SDS011;59888;55.814;37.132;2023-11-19T08:50:30;22.70;;;10.23;;
71395;SDS011;59888;55.814;37.132;2023-11-19T08:53:06;21.85;;;10.35;;
71395;SDS011;59888;55.814;37.132;2023-11-19T08:55:33;22.75;;;10.35;;
71395;SDS011;59888;55.814;37.132;2023-11-19T08:57:59;26.45;;;11.25;;
71395;SDS011;59888;55.814;37.132;2023-11-19T09:00:25;26.85;;;10.60;;
71395;SDS011;59888;55.814;37.132;2023-11-19T09:02:55;23.38;;;10.98;;
71395;SDS011;59888;55.814;37.132;2023-11-19T09:05:23;19.77;;;10.13;;
71395;SDS011;59888;55.814;37.132;2023-11-19T09:07:49;27.95;;;10.85;;
71395;SDS011;59888;55.814;37.132;2023-11-19T09:10:15;26.92;;;10.68;;
71395;SDS011;59888;55.814;37.132;2023-11-19T09:12:45;23.63;;;10.93;;
71395;SDS011;59888;55.814;37.132;2023-11-19T09:15:11;26.25;;;10.85;;
71395;SDS011;59888;55.814;37.132;2023-11-19T09:17:37;22.77;;;10.43;;
71395;SDS011;59888;55.814;37.132;2023-11-19T09:20:03;28.38;;;11.60;;
71395;SDS011;59888;55.814;37.132;2023-11-19T09:22:30;27.73;;;10.52;;
71395;SDS011;59888;55.814;37.132;2023-11-19T09:24:56;28.02;;;10.05;;
71395;SDS011;59888;55.814;37.132;2023-11-19T09:27:25;22.73;;;9.88;;
71395;SDS011;59888;55.814;37.132;2023-11-19T09:29:51;24.30;;;9.93;;
71395;SDS011;59888;55.814;37.132;2023-11-19T09:32:23;31.83;;;11.15;;
71395;SDS011;59888;55.814;37.132;2023-11-19T09:34:49;23.42;;;11.00;;
71395;SDS011;59888;55.814;37.132;2023-11-19T09:37:18;24.60;;;10.35;;
71395;SDS011;59888;55.814;37.132;2023-11-19T09:39:45;25.92;;;10.02;;
71395;SDS011;59888;55.814;37.132;2023-11-19T09:42:13;21.85;;;10.35;;
71395;SDS011;59888;55.814;37.132;2023-11-19T09:45:02;23.70;;;10.85;;
71395;SDS011;59888;55.814;37.132;2023-11-19T09:47:29;20.80;;;9.20;;
71395;SDS011;59888;55.814;37.132;2023-11-19T09:50:01;18.88;;;9.32;;
71395;SDS011;59888;55.814;37.132;2023-11-19T09:52:29;24.10;;;9.20;;
71395;SDS011;59888;55.814;37.132;2023-11-19T09:54:55;20.20;;;9.82;;
71395;SDS011;59888;55.814;37.132;2023-11-19T09:57:21;24.70;;;9.27;;
71395;SDS011;59888;55.814;37.132;2023-11-19T10:00:10;24.27;;;10.13;;
71395;SDS011;59888;55.814;37.132;2023-11-19T10:05:37;16.58;;;7.50;;
71395;SDS011;59888;55.814;37.132;2023-11-19T10:08:18;15.52;;;6.97;;
71395;SDS011;59888;55.814;37.132;2023-11-19T10:10:47;28.17;;;8.02;;
71395;SDS011;59888;55.814;37.132;2023-11-19T10:13:18;15.80;;;7.57;;
71395;SDS011;59888;55.814;37.132;2023-11-19T10:15:47;19.10;;;7.75;;
71395;SDS011;59888;55.814;37.132;2023-11-19T10:18:14;13.43;;;7.18;;
71395;SDS011;59888;55.814;37.132;2023-11-19T10:20:43;16.02;;;7.43;;
71395;SDS011;59888;55.814;37.132;2023-11-19T10:26:45;10.90;;;4.35;;
71395;SDS011;59888;55.814;37.132;2023-11-19T10:29:12;13.00;;;4.55;;
71395;SDS011;59888;55.814;37.132;2023-11-19T10:31:39;9.10;;;4.28;;
71395;SDS011;59888;55.814;37.132;2023-11-19T10:34:27;8.95;;;3.97;;
71395;SDS011;59888;55.814;37.132;2023-11-19T10:37:05;11.55;;;5.22;;
71395;SDS011;59888;55.814;37.132;2023-11-19T10:39:55;13.18;;;5.53;;
71395;SDS011;59888;55.814;37.132;2023-11-19T10:45:34;13.40;;;6.43;;
71395;SDS011;59888;55.814;37.132;2023-11-19T10:48:04;17.40;;;6.63;;
71395;SDS011;59888;55.814;37.132;2023-11-19T10:50:37;12.68;;;6.80;;
71395;SDS011;59888;55.814;37.132;2023-11-19T10:57:04;15.63;;;6.68;;
71395;SDS011;59888;55.814;37.132;2023-11-19T10:59:35;20.67;;;8.00;;
71395;SDS011;59888;55.814;37.132;2023-11-19T11:05:12;21.60;;;9.27;;
71395;SDS011;59888;55.814;37.132;2023-11-19T11:07:40;18.48;;;8.13;;
71395;SDS011;59888;55.814;37.132;2023-11-19T11:10:09;21.35;;;7.75;;
71395;SDS011;59888;55.814;37.132;2023-11-19T11:12:37;16.83;;;7.45;;
71395;SDS011;59888;55.814;37.132;2023-11-19T11:15:05;18.48;;;7.80;;
71395;SDS011;59888;55.814;37.132;2023-11-19T11:17:34;27.92;;;8.75;;
71395;SDS011;59888;55.814;37.132;2023-11-19T11:20:05;20.27;;;8.77;;
71395;SDS011;59888;55.814;37.132;2023-11-19T11:22:36;21.48;;;8.93;;
71395;SDS011;59888;55.814;37.132;2023-11-19T11:25:31;23.02;;;8.73;;
71395;SDS011;59888;55.814;37.132;2023-11-19T11:31:04;18.38;;;8.45;;
71395;SDS011;59888;55.814;37.132;2023-11-19T11:33:41;19.55;;;8.60;;
71395;SDS011;59888;55.814;37.132;2023-11-19T11:36:29;17.25;;;7.65;;
71395;SDS011;59888;55.814;37.132;2023-11-19T11:39:22;18.17;;;8.45;;
71395;SDS011;59888;55.814;37.132;2023-11-19T11:45:03;13.32;;;7.00;;
71395;SDS011;59888;55.814;37.132;2023-11-19T11:50:11;14.35;;;7.30;;
71395;SDS011;59888;55.814;37.132;2023-11-19T11:58:21;17.23;;;7.65;;
71395;SDS011;59888;55.814;37.132;2023-11-19T12:00:51;21.27;;;6.53;;
71395;SDS011;59888;55.814;37.132;2023-11-19T12:03:21;16.88;;;6.53;;
71395;SDS011;59888;55.814;37.132;2023-11-19T12:05:49;14.65;;;7.05;;
71395;SDS011;59888;55.814;37.132;2023-11-19T12:08:20;13.60;;;5.97;;
71395;SDS011;59888;55.814;37.132;2023-11-19T12:10:55;17.90;;;6.53;;
71395;SDS011;59888;55.814;37.132;2023-11-19T12:16:28;18.30;;;6.95;;
71395;SDS011;59888;55.814;37.132;2023-11-19T12:18:54;12.68;;;6.28;;
71395;SDS011;59888;55.814;37.132;2023-11-19T12:21:37;14.70;;;6.88;;
71395;SDS011;59888;55.814;37.132;2023-11-19T12:24:04;17.85;;;7.55;;
71395;SDS011;59888;55.814;37.132;2023-11-19T12:26:33;21.13;;;6.30;;
71395;SDS011;59888;55.814;37.132;2023-11-19T12:33:08;14.30;;;5.85;;
71395;SDS011;59888;55.814;37.132;2023-11-19T12:35:41;16.38;;;6.63;;
71395;SDS011;59888;55.814;37.132;2023-11-19T12:38:08;14.90;;;6.80;;
71395;SDS011;59888;55.814;37.132;2023-11-19T12:41:08;17.45;;;7.30;;
71395;SDS011;59888;55.814;37.132;2023-11-19T12:43:46;14.07;;;7.00;;
71395;SDS011;59888;55.814;37.132;2023-11-19T12:46:17;13.45;;;6.32;;
71395;SDS011;59888;55.814;37.132;2023-11-19T12:48:47;15.48;;;6.35;;
71395;SDS011;59888;55.814;37.132;2023-11-19T12:54:07;18.10;;;6.03;;
71395;SDS011;59888;55.814;37.132;2023-11-19T12:56:33;15.25;;;6.55;;
71395;SDS011;59888;55.814;37.132;2023-11-19T12:59:09;19.85;;;6.97;;
71395;SDS011;59888;55.814;37.132;2023-11-19T13:04:35;13.27;;;6.05;;
71395;SDS011;59888;55.814;37.132;2023-11-19T13:07:02;16.40;;;6.78;;
71395;SDS011;59888;55.814;37.132;2023-11-19T13:09:31;16.40;;;6.60;;
71395;SDS011;59888;55.814;37.132;2023-11-19T13:11:57;13.63;;;5.88;;
71395;SDS011;59888;55.814;37.132;2023-11-19T13:14:35;16.70;;;6.82;;
71395;SDS011;59888;55.814;37.132;2023-11-19T13:17:02;20.45;;;7.25;;
71395;SDS011;59888;55.814;37.132;2023-11-19T13:19:29;16.40;;;6.93;;
71395;SDS011;59888;55.814;37.132;2023-11-19T13:21:55;20.58;;;8.00;;
71395;SDS011;59888;55.814;37.132;2023-11-19T13:24:21;21.67;;;8.65;;
71395;SDS011;59888;55.814;37.132;2023-11-19T13:26:55;17.02;;;7.70;;
71395;SDS011;59888;55.814;37.132;2023-11-19T13:29:24;22.33;;;7.95;;
71395;SDS011;59888;55.814;37.132;2023-11-19T13:31:50;18.30;;;7.55;;
71395;SDS011;59888;55.814;37.132;2023-11-19T13:34:16;18.90;;;7.47;;
71395;SDS011;59888;55.814;37.132;2023-11-19T13:36:42;19.98;;;7.75;;
71395;SDS011;59888;55.814;37.132;2023-11-19T13:39:09;21.45;;;7.63;;
71395;SDS011;59888;55.814;37.132;2023-11-19T13:41:36;24.10;;;7.82;;
71395;SDS011;59888;55.814;37.132;2023-11-19T13:44:02;23.02;;;8.00;;
71395;SDS011;59888;55.814;37.132;2023-11-19T13:46:33;24.00;;;8.60;;
71395;SDS011;59888;55.814;37.132;2023-11-19T13:49:01;22.08;;;8.68;;
71395;SDS011;59888;55.814;37.132;2023-11-19T13:51:31;23.30;;;8.65;;
71395;SDS011;59888;55.814;37.132;2023-11-19T13:54:21;20.77;;;8.27;;
71395;SDS011;59888;55.814;37.132;2023-11-19T13:56:54;22.77;;;8.73;;
71395;SDS011;59888;55.814;37.132;2023-11-19T13:59:21;17.08;;;8.05;;
71395;SDS011;59888;55.814;37.132;2023-11-19T14:01:47;21.05;;;8.68;;
71395;SDS011;59888;55.814;37.132;2023-11-19T14:04:13;22.52;;;8.55;;
71395;SDS011;59888;55.814;37.132;2023-11-19T14:06:39;24.58;;;8.88;;
71395;SDS011;59888;55.814;37.132;2023-11-19T14:09:06;21.67;;;8.27;;
71395;SDS011;59888;55.814;37.132;2023-11-19T14:11:34;19.60;;;8.30;;
71395;SDS011;59888;55.814;37.132;2023-11-19T14:14:00;24.00;;;8.45;;
71395;SDS011;59888;55.814;37.132;2023-11-19T14:16:27;20.83;;;9.43;;
71395;SDS011;59888;55.814;37.132;2023-11-19T14:18:53;25.63;;;10.32;;
71395;SDS011;59888;55.814;37.132;2023-11-19T14:21:20;24.17;;;10.57;;
71395;SDS011;59888;55.814;37.132;2023-11-19T14:23:46;22.20;;;9.65;;
71395;SDS011;59888;55.814;37.132;2023-11-19T14:26:12;23.60;;;8.93;;
71395;SDS011;59888;55.814;37.132;2023-11-19T14:28:41;20.90;;;7.72;;
71395;SDS011;59888;55.814;37.132;2023-11-19T14:31:07;19.90;;;8.35;;
71395;SDS011;59888;55.814;37.132;2023-11-19T14:33:34;20.55;;;8.15;;
71395;SDS011;59888;55.814;37.132;2023-11-19T14:36:01;22.00;;;8.38;;
71395;SDS011;59888;55.814;37.132;2023-11-19T14:38:27;19.77;;;7.90;;
71395;SDS011;59888;55.814;37.132;2023-11-19T14:40:54;14.65;;;7.57;;
71395;SDS011;59888;55.814;37.132;2023-11-19T14:43:20;15.80;;;7.05;;
71395;SDS011;59888;55.814;37.132;2023-11-19T14:45:46;20.08;;;7.13;;
71395;SDS011;59888;55.814;37.132;2023-11-19T14:48:18;20.45;;;6.78;;
71395;SDS011;59888;55.814;37.132;2023-11-19T14:51:02;14.43;;;6.55;;
71395;SDS011;59888;55.814;37.132;2023-11-19T14:53:29;18.27;;;6.68;;
71395;SDS011;59888;55.814;37.132;2023-11-19T14:55:55;18.63;;;6.85;;
71395;SDS011;59888;55.814;37.132;2023-11-19T14:58:22;16.55;;;6.45;;
71395;SDS011;59888;55.814;37.132;2023-11-19T15:00:48;18.90;;;7.20;;
71395;SDS011;59888;55.814;37.132;2023-11-19T15:03:14;18.70;;;7.53;;
71395;SDS011;59888;55.814;37.132;2023-11-19T15:05:41;12.82;;;6.30;;
71395;SDS011;59888;55.814;37.132;2023-11-19T15:08:19;17.77;;;6.72;;
71395;SDS011;59888;55.814;37.132;2023-11-19T15:10:46;14.75;;;6.60;;
71395;SDS011;59888;55.814;37.132;2023-11-19T15:13:27;23.92;;;6.97;;
71395;SDS011;59888;55.814;37.132;2023-11-19T15:15:56;14.98;;;6.07;;
71395;SDS011;59888;55.814;37.132;2023-11-19T15:18:24;13.02;;;6.40;;